AKST,Max TemperatureF,Mean TemperatureF,Min TemperatureF,Max Dew PointF,MeanDew PointF,Min DewpointF,Max Humidity, Mean Humidity, Min Humidity, Max Sea Level PressureIn, Mean Sea Level PressureIn, Min Sea Level PressureIn, Max VisibilityMiles, Mean VisibilityMiles, Min VisibilityMiles, Max Wind SpeedMPH, Mean Wind SpeedMPH, Max Gust SpeedMPH,PrecipitationIn, CloudCover, Events, WindDirDegrees
2011-12-1,42,38,35,36,34,32,93,81,70,30.35,30.14,29.92,10,7,2,26,18,34,0.00,8,,200
2011-12-2,41,38,35,36,34,30,93,88,65,30.54,30.49,30.44,10,7,3,17,7,26,0.00,8,,116
2011-12-3,41,39,37,37,36,34,93,88,81,30.65,30.59,30.50,10,10,10,14,9,18,0.00,7,,112
2011-12-4,41,39,37,37,36,34,93,90,81,30.69,30.62,30.54,10,6,3,13,8,,0.00,8,,97
2011-12-5,46,42,39,43,38,34,93,84,76,30.48,30.22,30.01,10,8,5,28,9,36,0.00,8,,171
2011-12-6,37,34,30,30,28,25,93,80,60,30.57,30.49,30.35,10,10,10,10,5,,0.00,5,,176
2011-12-7,30,28,26,27,25,21,93,85,69,30.64,30.60,30.55,10,10,10,9,5,,0.00,2,,123
2011-12-8,37,34,30,34,29,25,87,83,75,30.53,30.45,30.35,10,10,7,15,8,21,0.00,8,,134
2011-12-9,41,39,37,36,35,34,93,87,81,30.29,30.09,29.90,10,10,5,17,8,22,0.00,8,,120
2011-12-10,37,35,33,34,33,30,100,91,87,30.21,30.04,29.90,10,8,1,6,2,,0.00,7,,165
2011-12-11,35,34,33,30,30,28,87,82,75,30.34,30.30,30.23,10,10,8,15,6,18,0.00,8,,118
2011-12-12,37,36,35,34,32,30,93,85,75,30.10,29.96,29.92,10,8,4,21,13,28,0.00,8,,117
2011-12-13,35,34,33,34,31,30,93,86,81,30.03,29.94,29.88,10,10,10,13,5,16,0.00,7,,129
2011-12-14,35,32,30,30,28,25,87,80,75,30.09,30.07,30.04,10,10,10,14,8,,0.00,7,,68
2011-12-15,35,30,26,30,25,19,93,79,69,30.14,30.10,30.06,10,8,1,20,8,28,0.00,4,,98
2011-12-16,37,35,33,36,32,28,93,85,75,30.08,29.98,29.90,10,9,7,14,7,16,0.00,8,,92
2011-12-17,33,32,30,32,28,27,93,88,80,30.12,30.00,29.91,10,9,2,13,7,,0.00,7,,304
2011-12-18,39,34,30,34,30,28,100,83,65,30.28,30.18,29.94,10,9,0,25,9,36,0.00,8,,102
2011-12-19,42,38,35,39,36,34,93,87,81,29.94,29.65,29.46,10,10,9,22,12,28,0.00,8,,104
2011-12-20,42,38,35,34,32,30,93,75,61,30.39,30.13,29.76,10,10,7,18,12,25,0.00,7,,246
2011-12-21,39,37,35,34,32,28,93,81,65,30.47,30.29,30.04,10,9,7,23,12,30,0.00,8,,120
2011-12-22,42,40,39,37,36,34,87,81,76,29.95,29.68,29.36,10,9,7,29,21,41,0.00,8,,124
2011-12-23,42,38,35,37,32,27,93,76,61,29.97,29.80,29.45,10,8,5,22,12,31,0.00,8,,145
2011-12-24,44,42,39,37,35,34,87,81,66,30.01,29.78,29.60,10,10,9,23,10,29,0.00,8,,113
2011-12-25,42,38,33,36,33,28,93,85,70,29.85,29.64,29.48,10,10,10,18,9,29,0.00,7,,186
2011-12-26,39,37,35,36,32,25,87,79,65,29.83,29.38,29.12,10,8,7,31,19,41,0.00,8,,130
2011-12-27,35,32,30,28,26,23,93,75,65,29.75,29.64,29.38,10,10,2,16,8,22,0.00,8,,128
2011-12-28,41,37,33,36,32,25,87,81,65,29.02,28.92,28.86,10,9,3,24,10,30,0.00,8,,118
2011-12-29,35,32,28,30,26,21,100,77,65,29.71,29.59,29.37,10,9,1,15,8,28,0.00,5,,146
2011-12-30,32,29,26,27,22,18,86,72,60,29.81,29.50,29.32,10,9,2,20,10,26,0.00,4,,316
2011-12-31,35,32,30,28,25,18,87,74,52,30.19,30.12,30.02,10,8,2,17,7,21,0.00,7,,120